Time;durP1;ratioP1;P1;durP2;ratioP2;P2;SDS_P1;SDS_P2;PMS_P1;PMS_P2;Temp;Humidity;BMP_temperature;BMP_pressure;BME280_temperature;BME280_humidity;BME280_pressure;Samples;Min_cycle;Max_cycle;Signal;HPM_P1;HPM_P2
2023/12/24 00:01:50;;;;;;;0.23;0.20;;;;;;;7.61;83.25;96740.31;6134519;28;20213;-51
2023/12/24 00:04:52;;;;;;;0.20;0.20;;;;;;;7.72;81.82;96717.38;6137184;28;20684;-50
2023/12/24 00:07:54;;;;;;;0.20;0.20;;;;;;;7.79;80.75;96718.03;6141591;28;20239;-50
2023/12/24 00:10:56;;;;;;;0.20;0.20;;;;;;;7.55;83.40;96706.84;6133879;28;20249;-47
2023/12/24 00:13:58;;;;;;;0.20;0.20;;;;;;;7.69;82.50;96752.34;6133791;28;20206;-47
2023/12/24 00:17:01;;;;;;;1.37;0.20;;;;;;;7.56;83.11;96732.31;6134973;28;20269;-48
2023/12/24 00:20:04;;;;;;;0.27;0.20;;;;;;;7.59;81.96;96744.28;6130599;29;20195;-46
2023/12/24 00:23:09;;;;;;;0.20;0.20;;;;;;;7.90;79.56;96746.25;6134885;28;20273;-47
2023/12/24 00:26:11;;;;;;;0.20;0.20;;;;;;;7.82;80.37;96753.81;6146321;28;20198;-49
2023/12/24 00:29:13;;;;;;;0.17;0.17;;;;;;;7.82;80.54;96738.72;6112937;29;20565;-48
2023/12/24 00:32:16;;;;;;;0.10;0.10;;;;;;;7.58;82.84;96743.44;6119113;29;20584;-47
2023/12/24 00:35:19;;;;;;;0.20;0.20;;;;;;;7.59;81.47;96758.34;6136901;28;20286;-47
2023/12/24 00:38:22;;;;;;;0.30;0.30;;;;;;;7.87;80.92;96773.25;6127096;28;20196;-49
2023/12/24 00:41:24;;;;;;;0.20;0.20;;;;;;;7.73;82.29;96740.19;6129855;28;20735;-48
2023/12/24 00:44:27;;;;;;;0.23;0.23;;;;;;;7.59;83.06;96755.69;6129571;28;20233;-47
2023/12/24 00:47:29;;;;;;;0.40;0.20;;;;;;;7.75;83.14;96719.56;6117837;29;20211;-50
2023/12/24 00:50:31;;;;;;;0.20;0.20;;;;;;;7.72;82.69;96750.00;6133805;28;20668;-48
2023/12/24 00:53:33;;;;;;;0.30;0.23;;;;;;;7.51;86.78;96758.75;6119058;29;20210;-50
2023/12/24 00:56:35;;;;;;;0.20;0.20;;;;;;;7.24;89.78;96735.59;6125189;29;20253;-48
2023/12/24 00:59:38;;;;;;;0.63;0.20;;;;;;;7.16;92.25;96804.88;6120046;29;20706;-49
2023/12/24 01:02:40;;;;;;;0.23;0.23;;;;;;;7.24;92.53;96769.22;6126200;29;20306;-49
2023/12/24 01:05:42;;;;;;;0.20;0.20;;;;;;;6.96;94.61;96746.28;6127306;28;20663;-48
2023/12/24 01:08:44;;;;;;;0.20;0.20;;;;;;;7.33;92.15;96762.47;6134756;28;20288;-49
2023/12/24 01:11:47;;;;;;;0.30;0.20;;;;;;;6.85;98.79;96766.53;6131953;29;20626;-49
2023/12/24 01:14:49;;;;;;;0.67;0.20;;;;;;;6.81;98.97;96751.34;6126981;28;20200;-50
2023/12/24 01:17:51;;;;;;;0.50;0.40;;;;;;;6.94;96.64;96762.41;6125973;29;20237;-47
2023/12/24 01:20:54;;;;;;;1.40;0.30;;;;;;;6.88;97.97;96797.78;6114847;29;20345;-47
2023/12/24 01:23:56;;;;;;;0.20;0.20;;;;;;;6.81;99.92;96778.63;6133526;28;20271;-48
2023/12/24 01:26:58;;;;;;;0.20;0.20;;;;;;;6.77;99.38;96758.16;6130920;28;20201;-48
2023/12/24 01:30:00;;;;;;;0.63;0.30;;;;;;;6.77;100.00;96748.38;6120258;28;20224;-47
2023/12/24 01:33:02;;;;;;;2.03;0.30;;;;;;;6.93;98.40;96770.59;6118366;28;20672;-48
2023/12/24 01:36:05;;;;;;;0.30;0.30;;;;;;;7.07;93.56;96758.63;6117068;28;20259;-48
2023/12/24 01:39:10;;;;;;;0.40;0.30;;;;;;;7.08;94.83;96783.28;6118269;28;20316;-49
2023/12/24 01:42:12;;;;;;;0.40;0.20;;;;;;;7.04;93.95;96758.31;6124864;29;20576;-48
2023/12/24 01:45:14;;;;;;;0.47;0.23;;;;;;;7.15;92.27;96775.97;6116377;29;20567;-48
2023/12/24 01:48:17;;;;;;;0.33;0.27;;;;;;;7.22;92.44;96755.41;6130927;28;20669;-49
2023/12/24 01:51:21;;;;;;;0.40;0.23;;;;;;;7.07;95.00;96760.50;6132461;28;20667;-49
2023/12/24 01:54:25;;;;;;;0.27;0.27;;;;;;;7.06;95.59;96762.34;6130191;28;20542;-47
2023/12/24 01:57:31;;;;;;;0.30;0.30;;;;;;;7.10;94.33;96765.31;6126764;28;20235;-48
2023/12/24 02:00:34;;;;;;;1.27;0.37;;;;;;;7.13;94.29;96801.91;6122377;28;20582;-48
2023/12/24 02:03:36;;;;;;;0.30;0.23;;;;;;;7.00;93.31;96758.00;6135235;28;20280;-48
2023/12/24 02:06:38;;;;;;;0.30;0.30;;;;;;;7.30;91.30;96760.31;6141913;28;20201;-48
2023/12/24 02:09:42;;;;;;;0.23;0.20;;;;;;;7.34;90.20;96777.34;6124239;29;20219;-49
2023/12/24 02:12:45;;;;;;;0.30;0.20;;;;;;;7.40;88.95;96739.25;6130488;28;20241;-47
2023/12/24 02:15:51;;;;;;;0.27;0.27;;;;;;;7.26;89.79;96740.66;6121401;28;20222;-46
2023/12/24 02:18:53;;;;;;;0.70;0.20;;;;;;;7.46;87.96;96763.97;6124952;28;20210;-47
2023/12/24 02:21:56;;;;;;;0.20;0.20;;;;;;;7.36;89.62;96755.88;6119321;29;20210;-49
2023/12/24 02:24:58;;;;;;;0.10;0.10;;;;;;;7.41;85.56;96727.59;6112372;28;20810;-48
2023/12/24 02:28:03;;;;;;;0.30;0.30;;;;;;;7.64;85.29;96728.44;6113324;28;20224;-47
2023/12/24 02:31:10;;;;;;;0.47;0.20;;;;;;;7.60;84.17;96732.63;6125404;29;20202;-47
2023/12/24 02:34:16;;;;;;;0.30;0.30;;;;;;;7.68;82.35;96751.53;6132278;28;20653;-48
2023/12/24 02:37:19;;;;;;;0.20;0.20;;;;;;;7.71;82.85;96713.94;6129073;28;20226;-48
2023/12/24 02:40:21;;;;;;;0.43;0.30;;;;;;;7.47;83.81;96737.22;6134333;28;20658;-50
2023/12/24 02:43:23;;;;;;;1.20;0.50;;;;;;;7.73;81.33;96733.06;6110863;29;20235;-47
2023/12/24 02:46:25;;;;;;;0.20;0.20;;;;;;;7.91;80.52;96731.94;6114277;29;20206;-46
2023/12/24 02:49:28;;;;;;;0.23;0.20;;;;;;;7.83;80.63;96699.75;6131537;28;20206;-50
2023/12/24 02:52:30;;;;;;;0.30;0.23;;;;;;;7.89;79.53;96734.03;6119376;28;20553;-49
2023/12/24 02:55:32;;;;;;;0.27;0.20;;;;;;;7.90;79.00;96751.56;6133196;28;20215;-49
2023/12/24 02:58:34;;;;;;;0.33;0.30;;;;;;;7.58;84.50;96785.84;6118788;29;20284;-50
2023/12/24 03:01:36;;;;;;;0.67;0.30;;;;;;;7.75;80.07;96733.59;6124686;29;20205;-48
2023/12/24 03:04:38;;;;;;;0.10;0.10;;;;;;;7.77;79.79;96759.88;6118938;28;20576;-47
2023/12/24 03:07:40;;;;;;;0.10;0.10;;;;;;;7.62;80.35;96771.06;6135312;28;20222;-47
2023/12/24 03:10:43;;;;;;;1.70;0.30;;;;;;;7.36;84.46;96761.19;6119982;29;21883;-47
2023/12/24 03:13:45;;;;;;;0.20;0.20;;;;;;;7.48;82.28;96770.63;6131463;28;20574;-47
2023/12/24 03:16:47;;;;;;;0.20;0.20;;;;;;;7.72;79.20;96765.09;6122958;28;20237;-48
2023/12/24 03:19:49;;;;;;;0.43;0.30;;;;;;;7.79;78.76;96749.03;6133315;28;20743;-47
2023/12/24 03:22:51;;;;;;;0.20;0.20;;;;;;;7.63;79.24;96758.63;6119110;28;20206;-48
2023/12/24 03:25:55;;;;;;;0.20;0.20;;;;;;;7.63;79.55;96772.66;6119584;29;20198;-48
2023/12/24 03:28:57;;;;;;;0.30;0.30;;;;;;;7.65;79.56;96761.84;6118496;29;20210;-48
2023/12/24 03:32:00;;;;;;;0.20;0.20;;;;;;;7.80;78.81;96753.28;6118721;29;20205;-48
2023/12/24 03:35:04;;;;;;;0.37;0.37;;;;;;;7.58;80.49;96774.47;6127169;28;20189;-48
2023/12/24 03:38:06;;;;;;;0.10;0.10;;;;;;;7.69;79.83;96755.00;6119854;29;20297;-47
2023/12/24 03:41:08;;;;;;;0.83;0.23;;;;;;;7.74;78.19;96707.34;6112676;28;20296;-49
2023/12/24 03:44:10;;;;;;;0.20;0.20;;;;;;;7.62;78.58;96759.66;6129795;28;20190;-48
2023/12/24 03:47:12;;;;;;;0.40;0.27;;;;;;;7.84;77.76;96770.31;6114378;28;20277;-48
2023/12/24 03:50:15;;;;;;;0.37;0.30;;;;;;;7.88;77.84;96793.44;6126263;28;20581;-49
2023/12/24 03:53:17;;;;;;;0.70;0.30;;;;;;;8.00;76.42;96796.75;6129323;29;20202;-47
2023/12/24 03:56:19;;;;;;;0.20;0.20;;;;;;;7.82;77.62;96790.94;6122578;29;20286;-49
2023/12/24 03:59:21;;;;;;;1.13;0.30;;;;;;;7.90;76.13;96785.22;6135544;28;20191;-48
2023/12/24 04:02:24;;;;;;;0.93;0.20;;;;;;;7.84;75.67;96760.50;6135747;28;20598;-47
2023/12/24 04:05:27;;;;;;;0.30;0.30;;;;;;;7.75;76.72;96760.13;6128138;28;20199;-50
2023/12/24 04:08:29;;;;;;;0.40;0.40;;;;;;;7.56;78.94;96760.66;6135129;28;20908;-50
2023/12/24 04:11:32;;;;;;;0.17;0.17;;;;;;;7.75;77.06;96775.22;6128373;28;20237;-47
2023/12/24 04:14:41;;;;;;;1.20;0.10;;;;;;;7.82;76.78;96799.69;6122747;28;20203;-48
2023/12/24 04:17:43;;;;;;;0.40;0.30;;;;;;;7.72;77.22;96818.13;6125756;29;20226;-49
2023/12/24 04:20:45;;;;;;;0.30;0.20;;;;;;;7.76;75.93;96763.56;6103702;29;20585;-47
2023/12/24 04:23:48;;;;;;;0.20;0.20;;;;;;;7.80;76.60;96779.78;6119135;29;20202;-46
2023/12/24 04:26:50;;;;;;;0.30;0.30;;;;;;;7.59;79.75;96778.72;6121214;29;20257;-48
2023/12/24 04:29:52;;;;;;;0.10;0.10;;;;;;;7.81;75.62;96787.50;6121634;29;20284;-47
2023/12/24 04:32:55;;;;;;;0.40;0.30;;;;;;;8.13;73.02;96777.03;6126695;28;20202;-48
2023/12/24 04:35:58;;;;;;;0.10;0.10;;;;;;;7.89;76.18;96804.84;6120763;28;20703;-48
2023/12/24 04:39:01;;;;;;;0.33;0.20;;;;;;;7.68;78.00;96817.81;6121120;28;20291;-49
2023/12/24 04:42:04;;;;;;;0.20;0.20;;;;;;;7.88;76.08;96877.47;6127218;28;20694;-48
2023/12/24 04:45:06;;;;;;;0.40;0.20;;;;;;;7.98;74.09;96859.06;6122528;29;20218;-48
2023/12/24 04:48:08;;;;;;;0.60;0.30;;;;;;;8.08;74.27;96821.22;6137694;28;20199;-49
2023/12/24 04:51:11;;;;;;;0.30;0.30;;;;;;;8.10;72.44;96830.56;6121236;29;20211;-50
2023/12/24 04:54:14;;;;;;;0.20;0.20;;;;;;;7.77;74.90;96796.97;6137872;28;20243;-48
2023/12/24 04:57:16;;;;;;;0.30;0.30;;;;;;;7.77;76.31;96847.34;6138657;28;20221;-49
2023/12/24 05:00:19;;;;;;;0.20;0.20;;;;;;;7.80;74.54;96811.63;6125445;28;20729;-52
2023/12/24 05:03:22;;;;;;;0.63;0.20;;;;;;;7.93;74.25;96886.31;6116265;28;20242;-49
2023/12/24 05:06:28;;;;;;;0.20;0.10;;;;;;;8.03;73.34;96853.81;6131768;28;20663;-47
2023/12/24 05:09:30;;;;;;;0.10;0.10;;;;;;;7.94;75.45;96877.31;6140211;28;20207;-47
2023/12/24 05:12:33;;;;;;;0.60;0.30;;;;;;;7.96;74.67;96851.34;6115358;29;20235;-48
2023/12/24 05:15:35;;;;;;;0.20;0.20;;;;;;;7.96;75.57;96847.88;6115000;29;20888;-48
2023/12/24 05:18:37;;;;;;;0.10;0.10;;;;;;;7.76;75.24;96843.09;6107021;29;20215;-48
2023/12/24 05:21:40;;;;;;;0.10;0.10;;;;;;;7.68;76.15;96846.16;6111818;29;20687;-46
2023/12/24 05:24:42;;;;;;;0.10;0.10;;;;;;;7.69;76.53;96850.44;6114128;29;20697;-47
2023/12/24 05:27:44;;;;;;;1.30;0.10;;;;;;;7.89;75.26;96858.69;6108947;29;20203;-48
2023/12/24 05:30:46;;;;;;;0.10;0.10;;;;;;;7.65;76.01;96839.50;6103954;29;20233;-47
2023/12/24 05:33:48;;;;;;;0.30;0.20;;;;;;;7.82;75.55;96855.38;6104262;29;20207;-48
2023/12/24 05:36:50;;;;;;;0.10;0.10;;;;;;;7.77;76.40;96881.81;6101180;29;20576;-50
2023/12/24 05:39:52;;;;;;;0.67;0.20;;;;;;;7.61;77.71;96885.31;6105395;29;20884;-48
2023/12/24 05:42:55;;;;;;;0.10;0.10;;;;;;;7.76;75.87;96894.28;6103388;29;20199;-50
2023/12/24 05:45:57;;;;;;;0.10;0.10;;;;;;;7.57;79.71;96914.13;6104973;29;20201;-50
2023/12/24 05:48:59;;;;;;;0.10;0.10;;;;;;;7.71;76.80;96896.84;6105356;29;20702;-51
2023/12/24 05:52:01;;;;;;;0.10;0.10;;;;;;;7.59;76.81;96929.81;6105482;29;20230;-49
2023/12/24 05:55:04;;;;;;;0.40;0.20;;;;;;;7.56;77.12;96922.34;6107586;29;20275;-50
2023/12/24 05:58:06;;;;;;;0.10;0.10;;;;;;;7.73;76.44;96933.72;6106166;29;20596;-48
2023/12/24 06:01:08;;;;;;;0.13;0.13;;;;;;;7.87;75.57;96920.94;6108183;29;20203;-48
2023/12/24 06:04:11;;;;;;;0.30;0.20;;;;;;;8.13;73.65;96914.16;6106374;29;20596;-50
2023/12/24 06:07:13;;;;;;;0.63;0.20;;;;;;;7.96;75.01;96930.09;6106860;29;20207;-47
2023/12/24 06:10:15;;;;;;;0.10;0.10;;;;;;;7.69;79.32;96906.91;6104641;29;20203;-47
2023/12/24 06:13:17;;;;;;;0.23;0.23;;;;;;;7.48;79.92;96936.78;6126255;28;20230;-48
2023/12/24 06:16:19;;;;;;;0.10;0.10;;;;;;;7.33;80.38;96928.56;6130677;28;20284;-48
2023/12/24 06:19:21;;;;;;;0.20;0.20;;;;;;;7.63;76.72;96930.91;6129091;28;20199;-50
2023/12/24 06:22:23;;;;;;;0.10;0.10;;;;;;;7.68;77.43;96941.59;6135913;28;20189;-50
2023/12/24 06:25:25;;;;;;;0.30;0.20;;;;;;;7.87;75.38;96927.03;6135157;28;20719;-46
2023/12/24 06:28:27;;;;;;;0.20;0.20;;;;;;;7.88;74.08;96943.75;6135745;29;20203;-48
2023/12/24 06:31:29;;;;;;;0.20;0.20;;;;;;;7.93;73.19;96923.44;6133223;28;20552;-48
2023/12/24 06:34:31;;;;;;;0.50;0.20;;;;;;;7.80;76.28;96928.28;6136874;28;20205;-47
2023/12/24 06:37:34;;;;;;;0.50;0.30;;;;;;;7.97;72.67;96950.25;6136741;28;20209;-48
2023/12/24 06:40:35;;;;;;;0.43;0.20;;;;;;;8.06;72.71;96924.13;6137440;28;20414;-46
2023/12/24 06:43:38;;;;;;;0.23;0.23;;;;;;;8.09;72.04;96953.63;6139266;28;20319;-47
2023/12/24 06:46:40;;;;;;;0.30;0.10;;;;;;;8.32;69.81;96919.97;6138965;28;20191;-48
2023/12/24 06:49:44;;;;;;;0.37;0.23;;;;;;;8.09;72.36;96945.69;6136324;28;20202;-47
2023/12/24 06:52:46;;;;;;;0.20;0.20;;;;;;;8.21;69.92;96938.41;6142087;28;20717;-49
2023/12/24 06:55:48;;;;;;;1.13;0.10;;;;;;;8.11;71.42;96979.91;6122328;29;20203;-47
2023/12/24 06:58:50;;;;;;;0.40;0.20;;;;;;;8.11;72.26;96964.00;6132633;28;20195;-49
2023/12/24 07:01:52;;;;;;;0.30;0.30;;;;;;;8.13;70.63;96980.50;6139243;28;20285;-48
2023/12/24 07:04:54;;;;;;;0.20;0.20;;;;;;;8.08;71.79;96965.31;6135292;28;20203;-48
2023/12/24 07:07:56;;;;;;;0.77;0.30;;;;;;;8.13;70.87;96946.00;6127877;28;20201;-47
2023/12/24 07:10:58;;;;;;;0.20;0.20;;;;;;;8.07;71.80;96968.19;6138632;28;20235;-47
2023/12/24 07:14:00;;;;;;;0.30;0.30;;;;;;;7.83;72.87;96951.63;6131605;28;20205;-47
2023/12/24 07:17:03;;;;;;;2.90;0.30;;;;;;;8.15;71.80;96962.47;6126409;28;20239;-49
2023/12/24 07:20:06;;;;;;;0.20;0.20;;;;;;;8.28;70.70;96991.31;6113641;29;20204;-47
2023/12/24 07:23:08;;;;;;;0.20;0.20;;;;;;;8.17;73.06;96977.09;6130679;28;20202;-49
2023/12/24 07:26:10;;;;;;;0.50;0.30;;;;;;;8.17;72.62;96971.78;6127072;28;20215;-50
2023/12/24 07:29:12;;;;;;;4.90;0.50;;;;;;;8.08;71.85;96975.09;6127777;28;20200;-47
2023/12/24 07:32:14;;;;;;;0.30;0.30;;;;;;;8.02;74.37;96974.22;6126391;28;20264;-48
2023/12/24 07:35:16;;;;;;;0.50;0.30;;;;;;;8.13;71.92;96986.59;6129118;28;20621;-48
2023/12/24 07:38:18;;;;;;;1.10;0.47;;;;;;;8.00;74.67;96985.06;6128292;28;20419;-48
2023/12/24 07:41:22;;;;;;;0.47;0.30;;;;;;;8.22;70.92;97002.88;6128701;29;20693;-46
2023/12/24 07:44:24;;;;;;;0.23;0.23;;;;;;;8.31;70.29;96988.16;6128651;29;20602;-49
2023/12/24 07:47:26;;;;;;;0.30;0.30;;;;;;;8.22;70.54;96989.63;6129345;28;20573;-46
2023/12/24 07:50:28;;;;;;;1.30;0.43;;;;;;;8.31;71.52;96992.66;6136200;28;20202;-49
2023/12/24 07:53:31;;;;;;;0.40;0.40;;;;;;;8.39;70.53;97013.53;6131540;28;20697;-49
2023/12/24 07:56:33;;;;;;;0.77;0.53;;;;;;;8.31;72.98;96992.66;6131268;28;20210;-48
2023/12/24 07:59:35;;;;;;;0.33;0.30;;;;;;;8.45;71.16;97002.72;6133291;28;20338;-47
2023/12/24 08:02:38;;;;;;;0.60;0.30;;;;;;;8.52;69.78;96984.78;6132117;28;20254;-51
2023/12/24 08:05:40;;;;;;;0.30;0.30;;;;;;;8.42;70.62;97021.81;6132107;28;20699;-47
2023/12/24 08:08:42;;;;;;;0.83;0.30;;;;;;;8.34;73.90;97008.13;6133621;28;20202;-47
2023/12/24 08:11:44;;;;;;;0.80;0.50;;;;;;;8.27;72.96;97034.78;6128328;28;20233;-48
2023/12/24 08:14:46;;;;;;;0.30;0.30;;;;;;;8.52;71.30;97016.66;6117877;29;20215;-50
2023/12/24 08:17:48;;;;;;;0.53;0.30;;;;;;;8.51;72.19;97025.63;6132394;28;20219;-46
2023/12/24 08:20:51;;;;;;;0.20;0.20;;;;;;;8.44;70.38;97048.09;6126860;28;20218;-47
2023/12/24 08:23:53;;;;;;;0.30;0.30;;;;;;;8.62;69.31;97033.72;6123351;28;20209;-49
2023/12/24 08:26:55;;;;;;;0.43;0.30;;;;;;;8.66;69.07;97027.69;6123249;28;20192;-48
2023/12/24 08:29:57;;;;;;;0.63;0.33;;;;;;;8.51;71.23;97044.22;6129376;29;20667;-47
2023/12/24 08:32:59;;;;;;;0.27;0.27;;;;;;;8.72;68.01;97076.38;6127155;28;20206;-50
2023/12/24 08:36:03;;;;;;;0.30;0.30;;;;;;;8.84;67.51;97052.38;6140205;29;20199;-52
2023/12/24 08:39:05;;;;;;;0.63;0.40;;;;;;;8.73;70.99;97048.78;6137957;28;20582;-50
2023/12/24 08:42:07;;;;;;;0.63;0.40;;;;;;;8.57;69.75;97058.38;6137239;28;20205;-50
2023/12/24 08:45:09;;;;;;;0.53;0.33;;;;;;;8.55;71.49;97063.13;6136112;28;20667;-49
2023/12/24 08:48:12;;;;;;;0.30;0.30;;;;;;;8.53;70.07;97049.28;6130020;28;20213;-47
2023/12/24 08:51:14;;;;;;;0.30;0.30;;;;;;;8.79;69.18;97075.13;6145126;28;20207;-47
2023/12/24 08:54:16;;;;;;;0.33;0.33;;;;;;;8.72;67.53;97055.94;6120230;29;20202;-49
2023/12/24 08:57:18;;;;;;;0.30;0.30;;;;;;;8.93;67.36;97077.47;6131285;28;20272;-49
2023/12/24 09:00:20;;;;;;;0.27;0.27;;;;;;;8.82;68.62;97102.25;6129969;29;20618;-49
2023/12/24 09:03:22;;;;;;;0.30;0.30;;;;;;;8.75;68.49;97076.69;6135374;28;20208;-47
2023/12/24 09:06:24;;;;;;;0.20;0.20;;;;;;;8.79;67.58;97077.81;6130292;28;20206;-48
2023/12/24 09:09:27;;;;;;;0.30;0.20;;;;;;;8.87;67.31;97083.75;6138927;28;20203;-47
2023/12/24 09:12:29;;;;;;;1.13;0.30;;;;;;;9.01;66.14;97091.13;6131625;28;20246;-47
2023/12/24 09:15:32;;;;;;;0.70;0.40;;;;;;;9.03;66.16;97099.63;6134370;28;20264;-48
2023/12/24 09:18:34;;;;;;;0.70;0.30;;;;;;;9.17;64.52;97057.56;6133139;28;20238;-49
2023/12/24 09:21:37;;;;;;;0.30;0.30;;;;;;;9.02;67.09;97106.00;6132084;28;20677;-47
2023/12/24 09:24:39;;;;;;;1.67;0.30;;;;;;;9.02;67.40;97097.25;6133660;28;20967;-48
2023/12/24 09:27:41;;;;;;;1.03;0.20;;;;;;;9.05;65.99;97094.88;6134032;28;20682;-47
2023/12/24 09:30:43;;;;;;;1.03;0.40;;;;;;;9.05;68.20;97094.88;6132442;28;20209;-47
2023/12/24 09:33:45;;;;;;;0.73;0.43;;;;;;;9.03;67.06;97115.56;6132925;28;20766;-46
2023/12/24 09:36:47;;;;;;;0.83;0.30;;;;;;;8.97;68.28;97116.56;6134024;28;20203;-47
2023/12/24 09:39:50;;;;;;;0.20;0.20;;;;;;;9.14;67.77;97131.66;6136672;28;20607;-47
2023/12/24 09:42:52;;;;;;;0.63;0.37;;;;;;;9.20;67.23;97098.78;6134332;28;20198;-48
2023/12/24 09:45:54;;;;;;;0.40;0.30;;;;;;;9.18;66.57;97111.50;6124048;29;20206;-46
2023/12/24 09:48:56;;;;;;;3.33;0.50;;;;;;;9.19;68.61;97132.53;6127476;28;20192;-48
2023/12/24 09:51:59;;;;;;;0.60;0.33;;;;;;;9.34;64.35;97110.66;6132709;28;20203;-47
2023/12/24 09:55:03;;;;;;;0.60;0.30;;;;;;;9.22;64.97;97124.06;6133892;28;20286;-49
2023/12/24 09:58:05;;;;;;;2.73;0.50;;;;;;;9.22;65.36;97094.03;6132334;29;20294;-48
2023/12/24 10:01:07;;;;;;;0.40;0.40;;;;;;;9.00;66.35;97102.78;6134326;28;20735;-47
2023/12/24 10:04:10;;;;;;;1.17;0.40;;;;;;;9.06;67.36;97093.00;6133898;28;20343;-48
2023/12/24 10:07:12;;;;;;;0.30;0.30;;;;;;;9.03;67.62;97070.41;6123000;29;20501;-48
2023/12/24 10:10:14;;;;;;;0.20;0.20;;;;;;;9.15;67.46;97118.13;6111053;28;20214;-47
2023/12/24 10:13:20;;;;;;;0.30;0.30;;;;;;;9.18;67.35;97088.41;6124379;28;20323;-48
2023/12/24 10:16:22;;;;;;;0.30;0.23;;;;;;;9.41;64.89;97089.19;6127896;28;20607;-47
2023/12/24 10:19:27;;;;;;;0.30;0.30;;;;;;;9.39;65.52;97070.84;6130657;28;20588;-51
2023/12/24 10:22:29;;;;;;;0.60;0.10;;;;;;;9.36;66.00;97067.84;6128306;28;20191;-50
2023/12/24 10:25:32;;;;;;;0.33;0.30;;;;;;;9.31;68.69;97055.34;6125583;29;20210;-47
2023/12/24 10:28:34;;;;;;;1.27;0.30;;;;;;;9.38;66.93;97060.47;6124612;28;20206;-47
2023/12/24 10:31:49;;;;;;;0.20;0.20;;;;;;;9.32;67.80;97101.31;6122809;28;20618;-47
2023/12/24 10:34:57;;;;;;;0.20;0.13;;;;;;;9.08;67.55;97037.78;6128287;28;20210;-48
2023/12/24 10:38:14;;;;;;;0.83;0.30;;;;;;;9.32;66.46;97054.28;6126784;28;20700;-47
2023/12/24 10:41:16;;;;;;;0.20;0.20;;;;;;;9.18;68.41;97069.81;6138569;28;20199;-47
2023/12/24 10:44:18;;;;;;;0.20;0.13;;;;;;;9.21;68.44;97069.31;6125840;28;20573;-48
2023/12/24 10:47:20;;;;;;;1.53;0.30;;;;;;;9.22;67.94;97049.66;6126324;29;20304;-46
2023/12/24 10:50:22;;;;;;;0.40;0.20;;;;;;;9.18;69.94;97064.47;6110272;29;20683;-48
2023/12/24 10:53:24;;;;;;;0.10;0.10;;;;;;;9.06;69.22;97066.44;6133800;28;20194;-47
2023/12/24 10:56:33;;;;;;;0.87;0.20;;;;;;;9.20;69.30;97051.75;6130000;28;20199;-48
2023/12/24 10:59:53;;;;;;;0.10;0.10;;;;;;;9.07;69.94;97048.69;6132058;28;20625;-48
2023/12/24 11:02:55;;;;;;;0.10;0.10;;;;;;;9.08;70.94;97045.75;6131442;28;20204;-46
2023/12/24 11:05:58;;;;;;;0.20;0.20;;;;;;;9.13;70.22;97056.44;6131014;28;20276;-46
2023/12/24 11:09:01;;;;;;;0.20;0.13;;;;;;;9.28;69.16;97071.78;6134693;28;20196;-48
2023/12/24 11:12:03;;;;;;;0.30;0.30;;;;;;;9.16;71.86;97079.88;6124022;28;20235;-47
2023/12/24 11:15:08;;;;;;;0.43;0.30;;;;;;;9.12;70.88;97054.06;6131809;28;20203;-48
2023/12/24 11:18:32;;;;;;;0.20;0.20;;;;;;;9.21;69.93;97058.69;6132332;28;20281;-49
2023/12/24 11:22:06;;;;;;;0.47;0.30;;;;;;;9.15;71.88;97038.41;6133606;29;20257;-50
2023/12/24 11:25:17;;;;;;;0.20;0.20;;;;;;;9.26;70.75;97034.00;6134333;29;20702;-48
2023/12/24 11:28:23;;;;;;;0.20;0.20;;;;;;;9.19;72.75;97033.41;6135484;28;20668;-49
2023/12/24 11:31:27;;;;;;;0.20;0.20;;;;;;;9.42;70.94;97040.31;6132541;28;20277;-48
2023/12/24 11:34:32;;;;;;;0.20;0.20;;;;;;;9.32;72.10;97056.13;6131877;28;20198;-49
2023/12/24 11:37:36;;;;;;;0.10;0.10;;;;;;;9.37;72.28;97054.34;6130720;28;20246;-49
2023/12/24 11:40:38;;;;;;;0.10;0.10;;;;;;;9.35;73.46;97076.88;6133467;28;20293;-48
2023/12/24 11:43:50;;;;;;;0.13;0.13;;;;;;;9.34;74.56;97062.00;6135469;28;20209;-47
2023/12/24 11:46:52;;;;;;;0.30;0.20;;;;;;;9.39;74.03;97038.13;6132624;28;20191;-49
2023/12/24 11:49:54;;;;;;;0.40;0.20;;;;;;;9.19;77.58;97033.41;6123181;28;20281;-48
2023/12/24 11:52:57;;;;;;;1.40;0.20;;;;;;;8.97;78.93;97052.81;6122957;28;20210;-46
2023/12/24 11:56:10;;;;;;;0.50;0.20;;;;;;;8.90;80.38;97056.69;6135732;29;20201;-46
2023/12/24 11:59:13;;;;;;;0.20;0.20;;;;;;;8.92;79.85;97047.44;6123511;29;20226;-48
2023/12/24 12:02:16;;;;;;;0.10;0.10;;;;;;;8.97;80.54;97059.97;6127572;28;20202;-49
2023/12/24 12:05:18;;;;;;;0.20;0.20;;;;;;;8.91;80.45;97043.16;6129336;28;20200;-48
2023/12/24 12:08:20;;;;;;;0.10;0.10;;;;;;;8.76;81.95;97050.91;6126564;28;20380;-48
2023/12/24 12:11:22;;;;;;;0.10;0.10;;;;;;;8.71;82.69;97041.03;6127020;28;20763;-48
2023/12/24 12:14:24;;;;;;;0.10;0.10;;;;;;;8.70;83.06;97042.09;6113619;29;20198;-49
2023/12/24 12:17:27;;;;;;;0.10;0.10;;;;;;;8.67;84.82;97057.69;6125549;28;20214;-47
2023/12/24 12:20:30;;;;;;;0.10;0.10;;;;;;;8.68;85.61;97060.13;6129057;29;20323;-47
2023/12/24 12:23:32;;;;;;;0.17;0.17;;;;;;;8.67;85.24;97050.56;6128945;28;20206;-49
2023/12/24 12:26:34;;;;;;;0.10;0.10;;;;;;;8.49;87.54;97045.53;6131380;28;20565;-49
2023/12/24 12:29:37;;;;;;;0.20;0.20;;;;;;;8.59;86.55;97031.59;6134099;28;20261;-47
2023/12/24 12:32:39;;;;;;;0.20;0.20;;;;;;;8.45;88.71;97021.31;6133623;28;20785;-48
2023/12/24 12:35:41;;;;;;;0.10;0.10;;;;;;;8.50;90.12;97008.09;6134550;28;20612;-48
2023/12/24 12:38:43;;;;;;;0.10;0.10;;;;;;;8.37;94.15;97015.59;6120439;29;20679;-48
2023/12/24 12:41:45;;;;;;;0.10;0.10;;;;;;;8.12;99.48;97040.69;6126839;28;20196;-48
2023/12/24 12:44:47;;;;;;;0.10;0.10;;;;;;;8.08;96.78;97009.56;6129973;28;20198;-47
2023/12/24 12:47:49;;;;;;;0.77;0.20;;;;;;;8.11;97.67;97022.34;6141518;29;20208;-48
2023/12/24 12:50:52;;;;;;;0.00;0.00;;;;;;;8.14;96.09;97020.03;6128186;28;20209;-50
2023/12/24 12:53:54;;;;;;;0.27;0.10;;;;;;;8.00;98.52;97008.94;6139496;28;20194;-48
2023/12/24 12:56:57;;;;;;;0.10;0.10;;;;;;;8.06;96.83;97030.22;6134673;28;20206;-47
2023/12/24 13:00:09;;;;;;;0.10;0.10;;;;;;;7.86;100.00;97031.50;6136163;28;20211;-48
2023/12/24 13:03:11;;;;;;;0.17;0.10;;;;;;;7.75;100.00;97040.34;6137909;28;20641;-46
2023/12/24 13:06:14;;;;;;;0.00;0.00;;;;;;;7.62;100.00;97030.03;6136622;28;20667;-48
2023/12/24 13:09:18;;;;;;;0.10;0.10;;;;;;;7.67;100.00;97017.66;6141767;28;20234;-48
2023/12/24 13:12:20;;;;;;;0.00;0.00;;;;;;;7.64;100.00;96998.81;6135934;28;20231;-46
2023/12/24 13:15:23;;;;;;;0.10;0.10;;;;;;;7.61;100.00;97036.38;6139878;29;20578;-48
2023/12/24 13:18:29;;;;;;;0.13;0.13;;;;;;;7.61;100.00;97023.13;6138333;29;20239;-49
2023/12/24 13:21:32;;;;;;;0.10;0.10;;;;;;;7.68;100.00;97006.00;6139302;28;20820;-48
2023/12/24 13:24:35;;;;;;;0.00;0.00;;;;;;;7.77;100.00;97022.34;6141180;28;20237;-50
2023/12/24 13:27:37;;;;;;;0.10;0.10;;;;;;;7.91;100.00;97017.53;6136184;28;20201;-48
2023/12/24 13:30:39;;;;;;;0.10;0.10;;;;;;;7.81;100.00;97026.13;6126339;29;20202;-48
2023/12/24 13:33:41;;;;;;;0.00;0.00;;;;;;;7.90;100.00;97034.50;6133263;28;20221;-46
2023/12/24 13:36:44;;;;;;;0.10;0.10;;;;;;;7.81;100.00;97026.13;6131597;28;20361;-46
2023/12/24 13:39:46;;;;;;;0.10;0.10;;;;;;;7.88;100.00;97015.34;6129456;28;20217;-45
2023/12/24 13:42:48;;;;;;;0.30;0.10;;;;;;;7.98;100.00;97039.41;6129332;29;20198;-47
2023/12/24 13:45:51;;;;;;;0.10;0.10;;;;;;;7.84;100.00;97041.56;6131358;28;20206;-46
2023/12/24 13:48:53;;;;;;;0.10;0.10;;;;;;;7.43;100.00;96965.84;6121863;29;20211;-48
2023/12/24 13:51:55;;;;;;;0.20;0.10;;;;;;;7.87;100.00;97038.41;6129164;29;20296;-47
2023/12/24 13:54:58;;;;;;;0.50;0.10;;;;;;;8.01;100.00;97055.63;6132707;28;20427;-47
2023/12/24 13:58:01;;;;;;;0.10;0.10;;;;;;;7.98;100.00;97047.38;6127461;28;20223;-49
2023/12/24 14:01:03;;;;;;;0.07;0.07;;;;;;;7.97;100.00;97009.41;6136580;28;20198;-46
2023/12/24 14:04:06;;;;;;;0.10;0.10;;;;;;;8.05;100.00;97052.50;6128913;28;20280;-47
2023/12/24 14:07:08;;;;;;;0.23;0.20;;;;;;;8.21;98.34;97031.28;6129500;28;20195;-49
2023/12/24 14:10:13;;;;;;;0.50;0.30;;;;;;;8.02;100.00;97057.22;6128705;29;20281;-47
2023/12/24 14:13:16;;;;;;;0.17;0.17;;;;;;;8.07;100.00;97055.72;6130008;28;20234;-50
2023/12/24 14:16:18;;;;;;;0.10;0.10;;;;;;;8.08;100.00;97049.34;6128769;28;20810;-47
2023/12/24 14:19:20;;;;;;;0.50;0.30;;;;;;;8.00;100.00;97042.63;6126388;29;20232;-47
2023/12/24 14:22:22;;;;;;;0.53;0.30;;;;;;;7.86;100.00;97038.66;6128677;28;20393;-47
2023/12/24 14:25:25;;;;;;;1.23;0.20;;;;;;;7.83;100.00;97068.31;6132540;28;20658;-46
2023/12/24 14:28:27;;;;;;;0.30;0.30;;;;;;;7.83;100.00;97061.19;6138649;28;20952;-46
2023/12/24 14:31:29;;;;;;;0.63;0.30;;;;;;;7.64;100.00;97059.78;6136588;28;20738;-49